Time;durP1;ratioP1;P1;durP2;ratioP2;P2;SDS_P1;SDS_P2;PMS_P1;PMS_P2;Temp;Humidity;BMP_temperature;BMP_pressure;BME280_temperature;BME280_humidity;BME280_pressure;Samples;Min_cycle;Max_cycle;Signal;HPM_P1;HPM_P2
2021/07/17 00:00:14;;;;;;;16.58;6.07;;;18.20;99.90;;;;;;5053125;28;20535;-86
2021/07/17 00:02:42;;;;;;;12.15;5.40;;;18.30;99.90;;;;;;5052422;28;20372;-87
2021/07/17 00:05:15;;;;;;;12.07;5.90;;;18.30;99.90;;;;;;5043121;28;20021;-84
2021/07/17 00:07:44;;;;;;;11.75;5.38;;;18.30;99.90;;;;;;5052050;28;20025;-85
2021/07/17 00:10:35;;;;;;;12.80;5.85;;;18.30;99.90;;;;;;5051852;28;20051;-85
2021/07/17 00:13:02;;;;;;;12.65;5.32;;;18.30;99.90;;;;;;5035799;28;20037;-86
2021/07/17 00:15:29;;;;;;;10.90;5.47;;;18.30;99.90;;;;;;5060727;28;20453;-83
2021/07/17 00:17:58;;;;;;;13.55;5.80;;;18.30;99.90;;;;;;5073950;28;20028;-86
2021/07/17 00:20:25;;;;;;;17.42;6.03;;;18.30;99.90;;;;;;5057561;28;20045;-86
2021/07/17 00:22:55;;;;;;;10.13;5.88;;;18.30;99.90;;;;;;5054142;28;20048;-86
2021/07/17 00:25:23;;;;;;;10.98;5.28;;;18.20;99.90;;;;;;5051538;28;20495;-86
2021/07/17 00:28:01;;;;;;;;;;;;;;;;;;;;;
2021/07/17 00:30:28;;;;;;;15.57;6.07;;;18.20;99.90;;;;;;5052781;28;20029;-87
2021/07/17 00:33:00;;;;;;;19.35;7.25;;;18.20;99.90;;;;;;5050548;28;20021;-84
2021/07/17 00:35:31;;;;;;;18.05;7.07;;;18.20;99.90;;;;;;5042799;28;20033;-84
2021/07/17 00:37:56;;;;;;;10.18;5.28;;;18.10;99.90;;;;;;5049825;28;20033;-84
2021/07/17 00:40:27;;;;;;;12.65;5.78;;;18.10;99.90;;;;;;5049956;28;20063;-86
2021/07/17 00:42:56;;;;;;;9.98;5.82;;;18.20;99.90;;;;;;5050504;28;20029;-86
2021/07/17 00:45:23;;;;;;;12.48;6.20;;;18.10;99.90;;;;;;5051051;28;20035;-86
2021/07/17 00:47:51;;;;;;;13.35;5.88;;;18.10;99.90;;;;;;5051457;28;20021;-84
2021/07/17 00:50:20;;;;;;;14.35;5.30;;;18.10;99.90;;;;;;5051353;28;20119;-86
2021/07/17 00:52:49;;;;;;;12.30;5.93;;;18.10;99.90;;;;;;5051199;28;20047;-86
2021/07/17 00:55:16;;;;;;;11.77;6.10;;;18.10;99.90;;;;;;5052337;28;20057;-86
2021/07/17 00:57:49;;;;;;;11.15;5.63;;;18.10;99.90;;;;;;5052810;28;20071;-85
2021/07/17 01:00:22;;;;;;;15.50;6.45;;;18.10;99.90;;;;;;5051520;28;20027;-86
2021/07/17 01:03:11;;;;;;;12.65;6.20;;;18.00;99.90;;;;;;5052340;28;20024;-86
2021/07/17 01:05:38;;;;;;;12.50;5.80;;;18.00;99.90;;;;;;5044018;28;20053;-86
2021/07/17 01:08:06;;;;;;;12.98;6.15;;;18.00;99.90;;;;;;5056153;28;20104;-84
2021/07/17 01:10:33;;;;;;;12.23;5.20;;;18.00;99.90;;;;;;5050451;28;20035;-86
2021/07/17 01:12:59;;;;;;;11.88;6.00;;;17.90;99.90;;;;;;5049840;28;20040;-85
2021/07/17 01:15:25;;;;;;;10.10;5.55;;;17.90;99.90;;;;;;5049362;28;20460;-83
2021/07/17 01:17:52;;;;;;;14.65;6.55;;;17.90;99.90;;;;;;5049872;28;20032;-83
2021/07/17 01:20:21;;;;;;;14.93;6.60;;;17.90;99.90;;;;;;5050462;28;20025;-86
2021/07/17 01:22:48;;;;;;;13.23;6.40;;;17.80;99.90;;;;;;5053016;28;20024;-87
2021/07/17 01:25:23;;;;;;;13.57;5.68;;;17.80;99.90;;;;;;5039574;28;20482;-86
2021/07/17 01:27:56;;;;;;;13.13;5.80;;;17.70;99.90;;;;;;5049345;28;20552;-86
2021/07/17 01:30:34;;;;;;;13.13;5.93;;;17.70;99.90;;;;;;5052566;28;20028;-86
2021/07/17 01:33:01;;;;;;;11.55;5.97;;;17.70;99.90;;;;;;5041170;28;20557;-85
2021/07/17 01:35:27;;;;;;;12.75;6.22;;;17.70;99.90;;;;;;5052626;28;20044;-84
2021/07/17 01:37:53;;;;;;;13.10;5.95;;;17.70;99.90;;;;;;5057637;28;20100;-86
2021/07/17 01:40:21;;;;;;;11.85;5.85;;;17.60;99.90;;;;;;5058336;28;20052;-85
2021/07/17 01:42:57;;;;;;;13.02;6.32;;;17.60;99.90;;;;;;5047009;28;20075;-84
2021/07/17 01:45:36;;;;;;;13.35;6.32;;;17.60;99.90;;;;;;5056122;28;20057;-85
2021/07/17 01:48:03;;;;;;;14.88;6.25;;;17.60;99.90;;;;;;5044024;28;20021;-84
2021/07/17 01:50:31;;;;;;;12.63;5.97;;;17.60;99.90;;;;;;5046403;28;20110;-83
2021/07/17 01:53:06;;;;;;;12.23;5.93;;;17.60;99.90;;;;;;5027071;28;20017;-83
2021/07/17 01:55:35;;;;;;;9.93;5.75;;;17.60;99.90;;;;;;5054576;28;20059;-85
2021/07/17 01:58:05;;;;;;;11.57;5.50;;;17.60;99.90;;;;;;5046247;28;20508;-83
2021/07/17 02:00:31;;;;;;;14.63;6.80;;;17.60;99.90;;;;;;5049263;28;20027;-85
2021/07/17 02:02:57;;;;;;;15.88;6.63;;;17.60;99.90;;;;;;5032803;28;20025;-81
2021/07/17 02:05:26;;;;;;;13.60;6.07;;;17.60;99.90;;;;;;5054715;28;20457;-85
2021/07/17 02:07:56;;;;;;;11.77;6.20;;;17.60;99.90;;;;;;5051275;28;20089;-84
2021/07/17 02:10:29;;;;;;;10.77;6.03;;;17.50;99.90;;;;;;5052599;28;20055;-85
2021/07/17 02:13:18;;;;;;;13.63;5.63;;;17.50;99.90;;;;;;5045751;28;20021;-84
2021/07/17 02:15:51;;;;;;;11.68;6.55;;;17.50;99.90;;;;;;5014386;28;20041;-85
2021/07/17 02:18:32;;;;;;;;;;;17.40;99.90;;;;;;5038149;28;20035;-85
2021/07/17 02:21:04;;;;;;;10.60;6.35;;;17.40;99.90;;;;;;5038392;28;19912;-82
2021/07/17 02:23:35;;;;;;;16.50;7.13;;;17.40;99.90;;;;;;5037448;28;20022;-83
2021/07/17 02:26:06;;;;;;;10.13;5.70;;;17.40;99.90;;;;;;5035667;28;20376;-82
2021/07/17 02:28:38;;;;;;;13.15;5.90;;;17.40;99.90;;;;;;5037092;28;20030;-84
2021/07/17 02:31:05;;;;;;;11.52;5.13;;;17.40;99.90;;;;;;5038294;28;20056;-84
2021/07/17 02:33:31;;;;;;;13.43;6.32;;;17.40;99.90;;;;;;5021962;28;20030;-84
2021/07/17 02:35:58;;;;;;;14.75;6.20;;;17.40;99.90;;;;;;5037467;28;20080;-85
2021/07/17 02:38:25;;;;;;;13.65;6.13;;;17.40;99.90;;;;;;5038879;28;20108;-85
2021/07/17 02:40:53;;;;;;;14.73;6.85;;;17.40;99.90;;;;;;5036849;28;20029;-85
2021/07/17 02:43:20;;;;;;;10.35;5.30;;;17.40;99.90;;;;;;5037783;28;20041;-85
2021/07/17 02:45:46;;;;;;;11.25;5.25;;;17.40;99.90;;;;;;5037712;28;20026;-86
2021/07/17 02:48:11;;;;;;;9.95;5.15;;;17.50;99.90;;;;;;5037177;28;20026;-86
2021/07/17 02:50:37;;;;;;;11.98;5.72;;;17.50;99.90;;;;;;5037353;28;20022;-86
2021/07/17 02:53:02;;;;;;;13.57;6.50;;;17.50;99.90;;;;;;5037930;28;20025;-85
2021/07/17 02:55:28;;;;;;;16.98;6.47;;;17.40;99.90;;;;;;5037451;28;20061;-86
2021/07/17 02:57:54;;;;;;;14.75;6.35;;;17.40;99.90;;;;;;5038189;28;20124;-86
2021/07/17 03:00:19;;;;;;;11.98;6.10;;;17.40;99.90;;;;;;5021365;28;20492;-86
2021/07/17 03:02:45;;;;;;;12.95;6.10;;;17.40;99.90;;;;;;5039391;28;20022;-85
2021/07/17 03:05:12;;;;;;;12.43;6.00;;;17.40;99.90;;;;;;5038455;28;20033;-85
2021/07/17 03:07:38;;;;;;;16.63;6.18;;;17.40;99.90;;;;;;5038537;28;20029;-85
2021/07/17 03:10:05;;;;;;;13.95;6.13;;;17.30;99.90;;;;;;5037906;28;20099;-85
2021/07/17 03:12:32;;;;;;;12.43;5.82;;;17.30;99.90;;;;;;5021719;28;20200;-84
2021/07/17 03:14:57;;;;;;;15.80;6.05;;;17.20;99.90;;;;;;5038677;28;20109;-82
2021/07/17 03:17:23;;;;;;;15.52;6.25;;;17.20;99.90;;;;;;5035887;28;20065;-83
2021/07/17 03:19:49;;;;;;;13.68;5.35;;;17.20;99.90;;;;;;5038429;28;20032;-84
2021/07/17 03:22:16;;;;;;;11.13;5.68;;;17.20;99.90;;;;;;5037991;28;20025;-84
2021/07/17 03:24:43;;;;;;;14.75;6.05;;;17.20;99.90;;;;;;5036980;28;20022;-84
2021/07/17 03:27:08;;;;;;;12.63;6.18;;;17.10;99.90;;;;;;5038875;28;20029;-85
2021/07/17 03:29:34;;;;;;;13.55;5.68;;;17.20;99.90;;;;;;5039710;28;20025;-86
2021/07/17 03:32:00;;;;;;;12.70;6.30;;;17.10;99.90;;;;;;5040780;28;20028;-84
2021/07/17 03:34:26;;;;;;;16.40;6.50;;;17.00;99.90;;;;;;5041113;28;20025;-81
2021/07/17 03:36:51;;;;;;;15.02;6.43;;;16.90;99.90;;;;;;5048930;28;20056;-81
2021/07/17 03:39:17;;;;;;;21.27;6.72;;;16.80;99.90;;;;;;5051599;28;20063;-83
2021/07/17 03:41:42;;;;;;;10.15;5.53;;;16.80;99.90;;;;;;5045836;28;20021;-85
2021/07/17 03:44:08;;;;;;;12.35;5.85;;;16.70;99.90;;;;;;5037610;28;20370;-85
2021/07/17 03:46:36;;;;;;;11.82;5.95;;;16.70;99.90;;;;;;5038310;28;20025;-86
2021/07/17 03:49:04;;;;;;;12.98;6.13;;;16.60;99.90;;;;;;5038401;28;20037;-85
2021/07/17 03:51:30;;;;;;;11.07;5.57;;;16.50;99.90;;;;;;5036313;28;20030;-85
2021/07/17 03:53:57;;;;;;;10.13;5.10;;;16.50;99.90;;;;;;5043415;28;20032;-85
2021/07/17 03:56:23;;;;;;;12.95;5.80;;;16.40;99.90;;;;;;5056068;28;20093;-82
2021/07/17 03:58:49;;;;;;;12.30;5.85;;;16.40;99.90;;;;;;5053033;28;20037;-82
2021/07/17 04:01:17;;;;;;;12.43;5.88;;;16.40;99.90;;;;;;5035519;28;20028;-84
2021/07/17 04:03:46;;;;;;;11.63;4.93;;;16.40;99.90;;;;;;5036513;28;20017;-84
2021/07/17 04:06:11;;;;;;;9.77;5.20;;;16.30;99.90;;;;;;5036196;28;20079;-85
2021/07/17 04:08:37;;;;;;;8.70;4.65;;;16.30;99.90;;;;;;5037154;28;20029;-85
2021/07/17 04:11:03;;;;;;;11.85;4.95;;;16.30;99.90;;;;;;5037362;28;20490;-84
2021/07/17 04:13:29;;;;;;;13.00;5.20;;;16.30;99.90;;;;;;5035982;28;20436;-84
2021/07/17 04:15:54;;;;;;;11.70;5.40;;;16.30;99.90;;;;;;5035648;28;20454;-84
2021/07/17 04:18:20;;;;;;;11.15;5.82;;;16.30;99.90;;;;;;5035941;28;20033;-85
2021/07/17 04:20:46;;;;;;;13.35;5.40;;;16.40;99.90;;;;;;5037111;28;20036;-83
2021/07/17 04:23:11;;;;;;;13.15;5.97;;;16.40;99.90;;;;;;5035025;28;20017;-83
2021/07/17 04:25:39;;;;;;;14.90;6.18;;;16.40;99.90;;;;;;5034574;28;20065;-83
2021/07/17 04:28:04;;;;;;;13.40;6.45;;;16.40;99.90;;;;;;5018783;28;20156;-84
2021/07/17 04:30:30;;;;;;;14.90;6.07;;;16.40;99.90;;;;;;5035311;28;20080;-84
2021/07/17 04:32:58;;;;;;;13.32;6.30;;;16.50;99.90;;;;;;5036106;28;20022;-85
2021/07/17 04:35:24;;;;;;;12.15;5.75;;;16.50;99.90;;;;;;5034926;28;20124;-84
2021/07/17 04:37:53;;;;;;;10.85;5.47;;;16.50;99.90;;;;;;5034531;28;20101;-84
2021/07/17 04:40:19;;;;;;;12.63;5.50;;;16.50;99.90;;;;;;5018298;28;20507;-84
2021/07/17 04:42:45;;;;;;;14.70;5.80;;;16.50;99.90;;;;;;5036494;28;20104;-84
2021/07/17 04:45:11;;;;;;;12.65;5.75;;;16.50;99.90;;;;;;5034542;28;20029;-82
2021/07/17 04:47:37;;;;;;;12.73;5.60;;;16.50;99.90;;;;;;5034282;28;20049;-84
2021/07/17 04:50:04;;;;;;;17.13;6.35;;;16.60;99.90;;;;;;5034714;28;20116;-85
2021/07/17 04:52:30;;;;;;;11.95;5.88;;;16.60;99.90;;;;;;5035966;28;20366;-86
2021/07/17 04:54:56;;;;;;;13.52;6.10;;;16.60;99.90;;;;;;5035449;28;20037;-83
2021/07/17 04:57:22;;;;;;;15.18;6.13;;;16.70;99.90;;;;;;5037018;28;20033;-85
2021/07/17 04:59:47;;;;;;;13.10;5.88;;;16.70;99.90;;;;;;5036671;28;20033;-86
2021/07/17 05:02:14;;;;;;;15.13;6.95;;;16.60;99.90;;;;;;5035018;28;20029;-84
2021/07/17 05:04:42;;;;;;;17.08;7.18;;;16.70;99.90;;;;;;5036834;28;20094;-84
2021/07/17 05:07:08;;;;;;;15.00;6.63;;;16.70;99.90;;;;;;5036587;28;20029;-84
2021/07/17 05:09:34;;;;;;;15.48;5.93;;;16.70;99.90;;;;;;5018782;28;20148;-83
2021/07/17 05:12:00;;;;;;;14.82;6.72;;;16.70;99.90;;;;;;5035338;28;20061;-83
2021/07/17 05:14:36;;;;;;;14.15;5.97;;;16.80;99.90;;;;;;5037137;28;20030;-85
2021/07/17 05:17:01;;;;;;;12.98;5.82;;;16.80;99.90;;;;;;5037501;28;20179;-84
2021/07/17 05:19:28;;;;;;;14.65;6.47;;;16.80;99.90;;;;;;5035449;28;20038;-84
2021/07/17 05:21:54;;;;;;;12.73;6.00;;;16.90;99.90;;;;;;5043444;28;20045;-85
2021/07/17 05:24:26;;;;;;;13.02;5.88;;;16.90;99.90;;;;;;5036363;28;20025;-85
2021/07/17 05:26:55;;;;;;;11.57;5.65;;;17.00;99.90;;;;;;5019890;28;20167;-85
2021/07/17 05:29:21;;;;;;;11.27;6.07;;;17.00;99.90;;;;;;5036120;28;20477;-85
2021/07/17 05:31:47;;;;;;;14.45;6.93;;;17.00;99.90;;;;;;5036104;28;20029;-85
2021/07/17 05:34:13;;;;;;;14.25;6.32;;;17.00;99.90;;;;;;5034226;28;20033;-85
2021/07/17 05:36:39;;;;;;;10.40;5.90;;;17.10;99.90;;;;;;5017919;28;20540;-85
2021/07/17 05:39:05;;;;;;;11.95;5.53;;;17.20;99.90;;;;;;5035542;28;20034;-85
2021/07/17 05:41:31;;;;;;;15.68;6.10;;;17.30;99.90;;;;;;5036974;28;20024;-85
2021/07/17 05:43:56;;;;;;;12.32;5.97;;;17.30;99.90;;;;;;5035545;28;20025;-85
2021/07/17 05:46:22;;;;;;;16.65;6.80;;;17.40;99.90;;;;;;5038596;28;20045;-85
2021/07/17 05:48:49;;;;;;;10.55;5.57;;;17.50;99.90;;;;;;5038167;28;20022;-86
2021/07/17 05:51:16;;;;;;;12.90;5.63;;;17.50;99.90;;;;;;5045115;28;20032;-85
2021/07/17 05:53:42;;;;;;;12.68;5.82;;;17.60;99.90;;;;;;5038459;28;20044;-85
2021/07/17 05:56:09;;;;;;;12.60;6.30;;;17.70;99.90;;;;;;5055675;28;20132;-83
2021/07/17 05:58:35;;;;;;;12.20;5.47;;;17.80;99.90;;;;;;5054440;28;20040;-84
2021/07/17 06:01:02;;;;;;;10.98;5.47;;;17.90;99.90;;;;;;5055442;28;20021;-83
2021/07/17 06:03:29;;;;;;;10.68;5.80;;;18.00;99.90;;;;;;5054649;28;20033;-85
2021/07/17 06:05:56;;;;;;;12.52;5.68;;;18.00;99.90;;;;;;5056144;28;20104;-84
2021/07/17 06:08:21;;;;;;;9.25;5.07;;;18.00;99.90;;;;;;5054582;28;20025;-83
2021/07/17 06:10:47;;;;;;;11.65;6.05;;;18.10;99.90;;;;;;5054077;28;20049;-84
2021/07/17 06:13:19;;;;;;;11.95;5.72;;;18.10;99.90;;;;;;5055907;28;20033;-83
2021/07/17 06:15:46;;;;;;;12.82;6.28;;;18.10;99.90;;;;;;5057129;28;20530;-84
2021/07/17 06:18:12;;;;;;;13.05;5.50;;;18.10;99.90;;;;;;5041819;28;20048;-84
2021/07/17 06:20:37;;;;;;;9.15;5.10;;;18.10;99.90;;;;;;5057497;28;20029;-84
2021/07/17 06:23:04;;;;;;;13.90;5.50;;;18.10;99.90;;;;;;5058495;28;20416;-84
2021/07/17 06:25:33;;;;;;;9.20;4.45;;;18.20;99.90;;;;;;5059914;28;20377;-82
2021/07/17 06:27:59;;;;;;;10.75;4.90;;;18.20;99.90;;;;;;5058597;28;20040;-83
2021/07/17 06:30:25;;;;;;;10.60;5.15;;;18.20;99.90;;;;;;5058814;28;20041;-83
2021/07/17 06:32:51;;;;;;;12.65;4.65;;;18.20;99.90;;;;;;5058014;28;20052;-84
2021/07/17 06:35:17;;;;;;;8.13;4.30;;;18.30;99.90;;;;;;5057674;28;20033;-84
2021/07/17 06:37:43;;;;;;;9.85;4.90;;;18.30;99.90;;;;;;5058382;28;20449;-80
2021/07/17 06:40:17;;;;;;;9.80;4.25;;;18.40;99.90;;;;;;5058285;28;20029;-84
2021/07/17 06:42:43;;;;;;;;;;;18.40;99.90;;;;;;5042769;28;20090;-85
2021/07/17 06:45:15;;;;;;;9.30;4.45;;;18.40;99.90;;;;;;5059848;28;19909;-84
2021/07/17 06:47:46;;;;;;;10.38;4.05;;;18.50;99.90;;;;;;5059559;28;20029;-85
2021/07/17 06:50:15;;;;;;;9.05;4.20;;;18.60;99.90;;;;;;5058912;28;20076;-85
2021/07/17 06:52:41;;;;;;;8.70;4.20;;;18.80;99.90;;;;;;5058426;28;20040;-83
2021/07/17 06:55:09;;;;;;;8.68;3.90;;;18.90;99.90;;;;;;5057124;28;20025;-84
2021/07/17 06:57:39;;;;;;;10.25;4.63;;;19.00;99.90;;;;;;5056684;28;20485;-82
2021/07/17 07:00:09;;;;;;;9.77;4.40;;;19.10;99.90;;;;;;5056742;28;20025;-84
2021/07/17 07:02:36;;;;;;;9.98;3.85;;;19.10;99.90;;;;;;5058535;28;20049;-85
2021/07/17 07:05:03;;;;;;;6.25;3.47;;;19.10;99.90;;;;;;5057030;28;20330;-83
2021/07/17 07:07:28;;;;;;;9.70;4.30;;;19.10;99.90;;;;;;5056752;28;20055;-84
2021/07/17 07:09:58;;;;;;;9.60;3.90;;;19.10;99.90;;;;;;5057198;28;20048;-83
2021/07/17 07:12:24;;;;;;;9.18;3.85;;;19.20;99.90;;;;;;5058840;28;20469;-84
2021/07/17 07:14:55;;;;;;;7.55;3.92;;;19.20;99.90;;;;;;5056701;28;20048;-83
2021/07/17 07:17:22;;;;;;;5.95;3.35;;;19.20;99.90;;;;;;5056727;28;20037;-84
2021/07/17 07:19:48;;;;;;;6.60;3.45;;;19.30;99.90;;;;;;5056838;28;20021;-83
2021/07/17 07:22:13;;;;;;;7.28;3.47;;;19.30;99.90;;;;;;5057162;28;20037;-83
2021/07/17 07:24:39;;;;;;;10.10;3.88;;;19.30;99.90;;;;;;5056024;28;20040;-82
2021/07/17 07:27:05;;;;;;;8.27;3.67;;;19.40;99.90;;;;;;5056239;28;20370;-86
2021/07/17 07:29:31;;;;;;;9.20;3.50;;;19.40;99.90;;;;;;5069998;28;20021;-84
2021/07/17 07:31:59;;;;;;;7.90;3.78;;;19.40;99.90;;;;;;5058227;28;20029;-84
2021/07/17 07:34:25;;;;;;;8.20;3.80;;;19.40;99.90;;;;;;5046852;28;20461;-83
2021/07/17 07:36:51;;;;;;;7.90;3.70;;;19.40;99.90;;;;;;5059168;28;20043;-81
2021/07/17 07:39:19;;;;;;;7.07;3.67;;;19.40;99.90;;;;;;5065450;28;20049;-85
2021/07/17 07:41:48;;;;;;;5.90;3.30;;;19.50;99.90;;;;;;5056924;28;20029;-85
2021/07/17 07:44:15;;;;;;;10.45;4.28;;;19.50;99.90;;;;;;5056330;28;20029;-85
2021/07/17 07:46:53;;;;;;;8.02;3.58;;;19.60;99.90;;;;;;5056450;28;20035;-84
2021/07/17 07:49:28;;;;;;;8.18;3.90;;;19.60;99.90;;;;;;5056411;28;20086;-84
2021/07/17 07:51:55;;;;;;;9.32;3.92;;;19.70;99.90;;;;;;5056686;28;20025;-84
2021/07/17 07:54:24;;;;;;;8.90;3.60;;;19.80;99.90;;;;;;5052867;28;20033;-83
2021/07/17 07:56:52;;;;;;;9.13;3.88;;;19.80;99.90;;;;;;5043169;28;20075;-85
2021/07/17 07:59:19;;;;;;;7.95;3.65;;;19.80;99.90;;;;;;5043906;28;20036;-85
2021/07/17 08:01:46;;;;;;;7.72;3.45;;;19.80;99.90;;;;;;5053434;28;20156;-84
2021/07/17 08:04:13;;;;;;;7.30;2.75;;;19.90;99.90;;;;;;5040867;28;20032;-85
2021/07/17 08:06:39;;;;;;;7.45;3.28;;;20.00;99.90;;;;;;5051096;28;20025;-86
2021/07/17 08:09:08;;;;;;;6.28;3.20;;;20.10;99.90;;;;;;5044137;28;20045;-84
2021/07/17 08:14:47;;;;;;;8.13;3.03;;;20.20;99.90;;;;;;5031855;27;20404;-85
2021/07/17 08:17:19;;;;;;;5.57;2.72;;;20.30;99.90;;;;;;5030308;28;20132;-85
2021/07/17 08:19:45;;;;;;;5.05;2.40;;;20.40;99.90;;;;;;5032306;28;20583;-87
2021/07/17 08:22:15;;;;;;;5.70;2.42;;;20.40;99.90;;;;;;5030950;28;20065;-85
2021/07/17 08:24:40;;;;;;;4.57;2.28;;;20.50;99.90;;;;;;5028878;28;20013;-86
2021/07/17 08:27:07;;;;;;;5.32;2.13;;;20.60;99.90;;;;;;5034241;28;20057;-85
2021/07/17 08:29:40;;;;;;;6.38;2.55;;;20.60;99.90;;;;;;5034078;28;20493;-86
2021/07/17 08:32:07;;;;;;;4.72;2.15;;;20.70;99.90;;;;;;5034078;28;20037;-86
2021/07/17 08:34:33;;;;;;;6.05;2.40;;;20.80;99.90;;;;;;5036311;28;20030;-85
2021/07/17 08:36:59;;;;;;;5.70;2.80;;;20.90;99.90;;;;;;5036896;28;20056;-84
2021/07/17 08:39:26;;;;;;;6.30;2.28;;;21.00;99.90;;;;;;5048535;28;20009;-83
2021/07/17 08:41:52;;;;;;;6.68;2.13;;;21.10;99.90;;;;;;5045181;28;20042;-86
2021/07/17 08:44:21;;;;;;;6.90;2.40;;;21.10;99.90;;;;;;5038954;28;20030;-85
2021/07/17 08:46:51;;;;;;;4.70;2.13;;;21.10;99.90;;;;;;5033225;28;20050;-84
2021/07/17 08:49:19;;;;;;;5.32;2.25;;;21.20;99.90;;;;;;5030729;28;20034;-85
2021/07/17 08:51:48;;;;;;;4.35;1.73;;;21.20;99.90;;;;;;5026393;28;20118;-84
2021/07/17 08:54:18;;;;;;;4.13;1.60;;;21.20;99.90;;;;;;5061717;28;20080;-84
2021/07/17 08:56:45;;;;;;;4.85;1.90;;;21.30;99.90;;;;;;5029030;28;20025;-84
2021/07/17 08:59:11;;;;;;;5.00;1.80;;;21.40;99.90;;;;;;5010795;28;20034;-83
2021/07/17 09:01:38;;;;;;;2.50;1.40;;;21.50;99.90;;;;;;5025825;28;20442;-83
2021/07/17 09:04:08;;;;;;;6.72;1.85;;;21.60;99.90;;;;;;5009062;28;20064;-83
2021/07/17 09:06:42;;;;;;;7.40;2.13;;;21.70;99.90;;;;;;5025223;28;20041;-83
2021/07/17 09:09:28;;;;;;;4.15;2.00;;;21.70;99.90;;;;;;5021391;28;20056;-84
2021/07/17 09:11:55;;;;;;;5.68;1.58;;;21.70;99.90;;;;;;5027935;28;20021;-84
2021/07/17 09:14:39;;;;;;;5.13;1.70;;;21.80;99.90;;;;;;5009630;28;20545;-83
2021/07/17 09:17:20;;;;;;;3.03;1.52;;;21.90;99.90;;;;;;5026387;28;20068;-85
2021/07/17 09:19:59;;;;;;;16.27;1.90;;;22.00;99.90;;;;;;5025911;28;20061;-85
2021/07/17 09:22:38;;;;;;;3.40;1.40;;;22.10;99.90;;;;;;5030276;28;20025;-85
2021/07/17 09:25:53;;;;;;;3.42;1.35;;;22.20;99.90;;;;;;5030484;28;20014;-85
2021/07/17 09:28:28;;;;;;;4.65;1.50;;;22.30;99.90;;;;;;5019716;28;20087;-84
2021/07/17 09:30:58;;;;;;;3.67;1.33;;;22.40;99.90;;;;;;5018545;28;20044;-84
2021/07/17 09:33:29;;;;;;;4.45;1.38;;;22.50;99.90;;;;;;5028073;28;20033;-83
2021/07/17 09:36:00;;;;;;;3.72;1.23;;;22.60;99.90;;;;;;5017170;28;20014;-83
2021/07/17 09:38:32;;;;;;;4.00;1.30;;;22.80;99.90;;;;;;5011180;28;20089;-85
2021/07/17 09:41:05;;;;;;;4.57;1.30;;;23.20;99.90;;;;;;5015422;28;20057;-84
2021/07/17 09:43:41;;;;;;;3.30;1.40;;;24.20;99.90;;;;;;5016106;28;20384;-84
2021/07/17 09:46:21;;;;;;;3.20;1.10;;;25.50;99.90;;;;;;5015462;28;20025;-84
2021/07/17 09:49:00;;;;;;;3.53;1.30;;;26.30;99.90;;;;;;5013052;28;20030;-83
2021/07/17 09:51:34;;;;;;;2.80;1.00;;;26.90;99.90;;;;;;5015119;28;20075;-85
2021/07/17 09:54:09;;;;;;;3.33;0.90;;;27.70;99.90;;;;;;5015859;28;20034;-85
2021/07/17 09:57:01;;;;;;;3.58;1.20;;;28.40;99.90;;;;;;5031458;28;20041;-88
2021/07/17 09:59:38;;;;;;;5.85;1.10;;;28.80;99.90;;;;;;5033610;28;20360;-86
2021/07/17 10:02:07;;;;;;;4.93;0.90;;;28.90;99.90;;;;;;5023976;28;20038;-84
2021/07/17 10:04:49;;;;;;;4.50;0.88;;;28.90;99.90;;;;;;5023097;28;20029;-84
2021/07/17 10:07:19;;;;;;;2.50;0.95;;;29.30;99.90;;;;;;5016994;28;20029;-85
2021/07/17 10:09:49;;;;;;;2.45;0.90;;;29.50;99.90;;;;;;5029036;28;20042;-85
2021/07/17 10:12:15;;;;;;;2.92;0.90;;;29.80;99.90;;;;;;5022891;28;20061;-84
2021/07/17 10:14:44;;;;;;;2.50;0.90;;;30.10;99.80;;;;;;5022695;28;20508;-84
2021/07/17 10:17:15;;;;;;;1.70;0.73;;;30.30;98.90;;;;;;5022678;28;20466;-83
2021/07/17 10:19:44;;;;;;;5.47;1.08;;;30.40;98.60;;;;;;5027152;28;20272;-83
2021/07/17 10:22:12;;;;;;;3.25;1.02;;;30.70;98.10;;;;;;5032134;28;20065;-82
2021/07/17 10:24:46;;;;;;;3.53;0.80;;;30.90;96.90;;;;;;5020296;28;20400;-81
2021/07/17 10:27:13;;;;;;;2.55;0.65;;;31.10;96.10;;;;;;5023470;28;20089;-82
2021/07/17 10:29:45;;;;;;;3.42;0.88;;;31.00;95.30;;;;;;5015529;28;20566;-83
2021/07/17 10:32:15;;;;;;;2.85;0.80;;;31.00;95.20;;;;;;5014678;28;20034;-82
2021/07/17 10:34:41;;;;;;;1.75;0.68;;;31.30;95.20;;;;;;5013542;28;20034;-83
2021/07/17 10:37:33;;;;;;;3.08;0.80;;;31.70;95.00;;;;;;5014992;28;20486;-83
2021/07/17 10:40:19;;;;;;;3.43;1.00;;;31.90;93.80;;;;;;5014277;28;20034;-83
2021/07/17 10:43:01;;;;;;;3.47;0.98;;;31.90;93.10;;;;;;5015690;28;20368;-83
2021/07/17 10:45:43;;;;;;;2.58;0.75;;;31.60;92.80;;;;;;5014352;28;20030;-82
2021/07/17 10:48:32;;;;;;;;;;;31.60;92.70;;;;;;5015942;28;20010;-82
2021/07/17 10:51:00;;;;;;;3.38;1.13;;;31.60;92.20;;;;;;5010961;28;19906;-82
2021/07/17 10:53:48;;;;;;;2.78;0.90;;;31.70;92.50;;;;;;5015081;28;20030;-83
2021/07/17 10:56:35;;;;;;;2.72;0.80;;;32.20;92.20;;;;;;5014996;28;20054;-82
2021/07/17 10:59:14;;;;;;;2.63;0.80;;;32.30;91.50;;;;;;5015538;28;20036;-82
2021/07/17 11:02:04;;;;;;;3.50;0.80;;;32.30;91.20;;;;;;5013441;28;20096;-84
2021/07/17 11:04:51;;;;;;;2.85;0.70;;;32.50;90.80;;;;;;4993889;28;20018;-83
2021/07/17 11:07:26;;;;;;;2.22;0.90;;;32.70;90.60;;;;;;4995329;28;20075;-83
2021/07/17 11:09:56;;;;;;;3.45;0.82;;;32.70;88.40;;;;;;4995090;28;20474;-81
2021/07/17 11:12:55;;;;;;;2.53;0.90;;;32.50;88.50;;;;;;4998914;28;20413;-80
2021/07/17 11:15:24;;;;;;;3.97;1.00;;;32.70;88.10;;;;;;5012748;28;20042;-83
2021/07/17 11:17:52;;;;;;;2.63;0.90;;;32.70;87.00;;;;;;4998666;28;20127;-84
2021/07/17 11:20:28;;;;;;;2.97;0.95;;;32.70;86.00;;;;;;5015136;28;20010;-83
2021/07/17 11:23:04;;;;;;;3.47;0.80;;;32.80;86.70;;;;;;5015779;28;20041;-81
2021/07/17 11:25:32;;;;;;;3.17;0.73;;;33.00;86.30;;;;;;5014288;28;20029;-82
2021/07/17 11:28:02;;;;;;;3.33;0.95;;;33.10;85.60;;;;;;5015476;28;20079;-84
2021/07/17 11:30:33;;;;;;;3.45;0.75;;;33.20;84.70;;;;;;5014669;28;20030;-82
2021/07/17 11:33:10;;;;;;;3.25;1.00;;;33.10;83.30;;;;;;5022731;28;20018;-81
2021/07/17 11:35:41;;;;;;;2.00;0.70;;;33.00;83.30;;;;;;5022131;28;20033;-81
2021/07/17 11:38:11;;;;;;;3.13;0.80;;;33.20;83.90;;;;;;5014137;28;20025;-84
2021/07/17 11:40:37;;;;;;;2.08;0.70;;;33.40;82.80;;;;;;4997479;28;20164;-82
2021/07/17 11:43:11;;;;;;;2.55;0.73;;;33.60;81.60;;;;;;5013636;28;20120;-81
2021/07/17 11:45:38;;;;;;;2.60;0.95;;;33.70;82.00;;;;;;5013731;28;20089;-81
2021/07/17 11:48:15;;;;;;;2.03;0.60;;;33.80;81.30;;;;;;5012285;28;20026;-83
2021/07/17 11:50:45;;;;;;;3.45;0.88;;;33.90;80.90;;;;;;5011720;28;20294;-83
2021/07/17 11:53:18;;;;;;;2.97;0.80;;;34.00;80.40;;;;;;5013980;28;20116;-82
2021/07/17 11:55:43;;;;;;;;;;;34.00;79.10;;;;;;5013814;28;20066;-83
2021/07/17 11:58:17;;;;;;;212.48;30.80;;;33.90;77.70;;;;;;5013619;28;19956;-82
2021/07/17 12:00:43;;;;;;;46.35;7.90;;;34.10;78.80;;;;;;5013217;28;20029;-83
2021/07/17 12:03:18;;;;;;;13.98;3.38;;;34.10;78.90;;;;;;5011277;28;20042;-82
2021/07/17 12:05:48;;;;;;;4.68;1.40;;;34.50;78.80;;;;;;5012396;28;20021;-82
2021/07/17 12:08:14;;;;;;;3.05;1.10;;;34.60;77.60;;;;;;5013657;28;20072;-84
2021/07/17 12:10:40;;;;;;;2.50;1.00;;;34.60;76.40;;;;;;5014276;28;20618;-83
2021/07/17 12:13:08;;;;;;;1.98;0.70;;;34.60;75.80;;;;;;5012477;28;20566;-83
2021/07/17 12:15:36;;;;;;;3.30;0.90;;;34.50;75.90;;;;;;5012226;28;20025;-83
2021/07/17 12:18:05;;;;;;;3.00;0.75;;;34.70;76.20;;;;;;5014241;28;20474;-83
2021/07/17 12:20:37;;;;;;;3.58;1.20;;;35.10;75.70;;;;;;5012574;28;20492;-83
2021/07/17 12:23:13;;;;;;;3.35;1.00;;;35.20;74.80;;;;;;5013712;28;20073;-82
2021/07/17 12:25:49;;;;;;;1.63;0.82;;;35.00;75.10;;;;;;4992934;28;20033;-81
2021/07/17 12:28:44;;;;;;;3.30;0.85;;;35.00;75.20;;;;;;4993980;28;20109;-83
2021/07/17 12:31:11;;;;;;;2.05;0.75;;;35.30;73.00;;;;;;4993692;28;20171;-83
2021/07/17 12:33:42;;;;;;;2.28;0.70;;;35.20;73.30;;;;;;4992930;28;20377;-81
2021/07/17 12:36:20;;;;;;;3.40;0.70;;;35.00;72.80;;;;;;5005892;28;20022;-83
2021/07/17 12:39:00;;;;;;;2.55;0.73;;;34.90;73.00;;;;;;5013745;28;20022;-82
2021/07/17 12:41:35;;;;;;;3.38;0.85;;;35.00;70.50;;;;;;5014919;28;20381;-82
2021/07/17 12:44:11;;;;;;;3.03;0.88;;;35.00;71.30;;;;;;5013250;28;20124;-82
2021/07/17 12:46:48;;;;;;;2.60;0.60;;;35.10;72.20;;;;;;5013650;28;20478;-83
2021/07/17 12:49:20;;;;;;;2.67;0.88;;;35.40;72.00;;;;;;5013164;28;20099;-81
2021/07/17 12:51:58;;;;;;;3.92;1.25;;;35.50;70.60;;;;;;5012273;28;20028;-82
2021/07/17 12:54:26;;;;;;;2.92;1.10;;;35.50;71.00;;;;;;5012280;28;20045;-82
2021/07/17 12:57:03;;;;;;;3.75;0.90;;;35.40;69.60;;;;;;5012477;28;20089;-81
2021/07/17 12:59:39;;;;;;;3.08;1.00;;;35.30;70.20;;;;;;5018474;28;20026;-81